Surface Preassure
0:00 UTC
12:00 UTC (Click for larger versions)
Andrewsfield Outlook

Current time:


  05:04:02am (GMT)      05:04:02am (UTC)


Headline: Another dry day with sunny periods, becoming locally very warm.

Today: Although there will be some cloud at times everywhere will have another dry day with sunny periods. Becoming generally warm, but locally very warm, although along the coast cool late afternoon sea-breezes may develop. Breezy at first across The Pennines. Maximum Temperature 22C.

Tonight: Staying dry, and mainly clear. However, areas of low cloud and hill fog are likely to develop across The Pennines through the night. Minimum Temperature 11C.

Wednesday: Early hill fog across The Pennines will gradually disperse, leaving periods of strong sunshine. It will become very warm, although along the coast cool sea-breezes will eventually develop. Maximum Temperature 24C.

Outlook for Thursday to Saturday: Generally dry, very warm, with a good deal of often strong sunshine. However, Saturday there is an increasing chance of thundery showers arriving. Becoming breezy and cooler along the coast.

Forecast

Weather warnings

Nearby METAR/TAF

Stansted (EGSS)


Current conditions: VFR

METAR: EGSS 230450Z AUTO 30006KT 9999 NCD 11/10 Q1018

TAF:

Southend (EGMC)


Current conditions: VFR

METAR: EGMC 230450Z 28006KT CAVOK 12/09 Q1018

TAF: TAF EGMC 230154Z 2303/2312 28007KT CAVOK

RAF Wattisham (EGUW)


Current conditions: VFR

METAR: EGUW 230350Z AUTO 32008KT 9999 NCD 11/09 Q1016

TAF: